createdAt,value
2018-12-11T00:01:35.497Z,5.50
2018-12-11T00:04:02.968Z,5.05
2018-12-11T00:06:30.476Z,4.68
2018-12-11T00:08:57.923Z,4.55
2018-12-11T00:11:25.412Z,4.42
2018-12-11T00:13:52.864Z,4.40
2018-12-11T00:16:20.343Z,4.58
2018-12-11T00:18:47.796Z,4.78
2018-12-11T00:21:15.239Z,4.92
2018-12-11T00:23:42.707Z,4.98
2018-12-11T00:26:10.154Z,4.80
2018-12-11T00:28:37.649Z,4.81
2018-12-11T00:31:05.101Z,4.89
2018-12-11T00:33:32.632Z,5.13
2018-12-11T00:36:00.123Z,5.30
2018-12-11T00:38:27.588Z,5.01
2018-12-11T00:40:55.076Z,4.92
2018-12-11T00:43:22.622Z,4.84
2018-12-11T00:45:50.117Z,4.58
2018-12-11T00:48:17.547Z,4.54
2018-12-11T00:50:45.021Z,4.69
2018-12-11T00:53:12.509Z,4.83
2018-12-11T00:55:39.962Z,4.83
2018-12-11T00:58:07.424Z,4.86
2018-12-11T01:00:35.007Z,4.74
2018-12-11T01:03:02.471Z,4.80
2018-12-11T01:05:30.162Z,4.75
2018-12-11T01:07:57.619Z,4.82
2018-12-11T01:10:25.113Z,5.19
2018-12-11T01:12:52.551Z,5.05
2018-12-11T01:15:20.032Z,4.73
2018-12-11T01:17:47.464Z,4.40
2018-12-11T01:20:14.916Z,4.23
2018-12-11T01:22:42.501Z,4.16
2018-12-11T01:25:09.946Z,4.35
2018-12-11T01:27:37.826Z,4.43
2018-12-11T01:30:05.562Z,4.54
2018-12-11T01:32:33.010Z,4.60
2018-12-11T01:35:00.482Z,4.62
2018-12-11T01:37:28.113Z,4.82
2018-12-11T01:39:55.561Z,4.94
2018-12-11T01:42:22.994Z,5.02
2018-12-11T01:44:50.481Z,5.11
2018-12-11T01:47:17.939Z,5.31
2018-12-11T01:49:45.443Z,5.02
2018-12-11T01:52:12.896Z,4.56
2018-12-11T01:54:40.368Z,4.46
2018-12-11T01:57:07.881Z,4.30
2018-12-11T01:59:35.376Z,4.18
2018-12-11T02:02:03.111Z,4.24
2018-12-11T02:04:30.559Z,4.31
2018-12-11T02:06:58.038Z,4.55
2018-12-11T02:09:25.544Z,4.77
2018-12-11T02:11:53.116Z,4.85
2018-12-11T02:14:20.576Z,5.01
2018-12-11T02:16:48.059Z,5.15
2018-12-11T02:19:15.497Z,5.17
2018-12-11T02:21:42.929Z,5.44
2018-12-11T02:24:10.428Z,5.32
2018-12-11T02:26:37.901Z,4.90
2018-12-11T02:29:05.332Z,4.76
2018-12-11T02:31:32.820Z,4.67
2018-12-11T02:34:00.273Z,4.66
2018-12-11T02:36:27.756Z,4.63
2018-12-11T02:38:55.252Z,4.91
2018-12-11T02:41:22.718Z,5.04
2018-12-11T02:43:50.196Z,5.04
2018-12-11T02:46:17.693Z,5.06
2018-12-11T02:48:45.139Z,5.16
2018-12-11T02:51:12.759Z,5.36
2018-12-11T02:53:40.235Z,5.51
2018-12-11T02:56:07.708Z,5.65
2018-12-11T02:58:35.189Z,5.95
2018-12-11T03:01:02.624Z,5.51
2018-12-11T03:03:30.156Z,4.97
2018-12-11T03:05:57.607Z,4.49
2018-12-11T03:08:25.041Z,4.33
2018-12-11T03:10:52.530Z,4.25
2018-12-11T03:13:20.078Z,4.37
2018-12-11T03:15:47.543Z,4.56
2018-12-11T03:18:15.000Z,4.62
2018-12-11T03:20:42.907Z,4.61
2018-12-11T03:23:10.378Z,4.77
2018-12-11T03:25:37.851Z,4.89
2018-12-11T03:28:05.304Z,4.92
2018-12-11T03:30:32.747Z,5.07
2018-12-11T03:33:00.237Z,5.48
2018-12-11T03:35:27.777Z,5.39
2018-12-11T03:37:55.250Z,5.02
2018-12-11T03:40:22.724Z,4.61
2018-12-11T03:42:50.197Z,4.42
2018-12-11T03:45:17.949Z,4.59
2018-12-11T03:47:45.420Z,4.56
2018-12-11T03:50:13.167Z,4.60
2018-12-11T03:52:40.592Z,4.87
2018-12-11T03:55:08.174Z,5.09
2018-12-11T03:57:36.087Z,5.20
2018-12-11T04:00:04.592Z,5.31
2018-12-11T04:02:32.041Z,5.32
2018-12-11T04:04:59.856Z,5.35
2018-12-11T04:07:27.370Z,5.48
2018-12-11T04:09:54.843Z,5.48
2018-12-11T04:12:22.284Z,5.10
2018-12-11T04:14:50.062Z,4.60
2018-12-11T04:17:18.002Z,4.33
2018-12-11T04:19:45.469Z,4.16
2018-12-11T04:22:13.063Z,4.13
2018-12-11T04:24:40.499Z,4.32
2018-12-11T04:27:08.015Z,4.45
2018-12-11T04:29:35.489Z,4.62
2018-12-11T04:32:02.955Z,4.71
2018-12-11T04:34:30.423Z,4.88
2018-12-11T04:36:57.893Z,4.88
2018-12-11T04:39:25.325Z,5.09
2018-12-11T04:41:52.794Z,5.25
2018-12-11T04:44:20.249Z,5.58
2018-12-11T04:46:47.725Z,5.44
2018-12-11T04:49:15.179Z,5.03
2018-12-11T04:51:43.203Z,4.71
2018-12-11T04:54:10.697Z,4.52
2018-12-11T04:56:38.179Z,4.44
2018-12-11T04:59:05.622Z,4.48
2018-12-11T05:01:33.092Z,4.66
2018-12-11T05:04:00.553Z,4.94
2018-12-11T05:06:28.058Z,5.17
2018-12-11T05:08:55.513Z,5.25
2018-12-11T05:11:22.972Z,5.43
2018-12-11T05:13:51.225Z,5.61
2018-12-11T05:16:18.823Z,5.67
2018-12-11T05:18:46.308Z,5.77
2018-12-11T05:21:13.882Z,5.92
2018-12-11T05:23:41.364Z,5.62
2018-12-11T05:26:09.683Z,5.19
2018-12-11T05:28:37.150Z,4.88
2018-12-11T05:31:05.275Z,4.73
2018-12-11T05:33:32.749Z,4.76
2018-12-11T05:36:00.211Z,4.77
2018-12-11T05:38:27.703Z,4.97
2018-12-11T05:40:55.152Z,5.08
2018-12-11T05:43:22.611Z,5.25
2018-12-11T05:45:50.084Z,5.33
2018-12-11T05:48:17.519Z,5.44
2018-12-11T05:50:44.977Z,5.33
2018-12-11T05:53:12.413Z,5.36
2018-12-11T05:55:39.889Z,5.64
2018-12-11T05:58:07.331Z,5.62
2018-12-11T06:00:34.777Z,5.27
2018-12-11T06:03:02.258Z,4.77
2018-12-11T06:05:29.713Z,4.41
2018-12-11T06:07:57.189Z,4.27
2018-12-11T06:10:24.646Z,4.39
2018-12-11T06:12:52.126Z,4.74
2018-12-11T06:15:19.612Z,4.72
2018-12-11T06:17:47.052Z,4.55
2018-12-11T06:20:14.661Z,4.90
2018-12-11T06:22:42.115Z,5.17
2018-12-11T06:25:09.717Z,5.24
2018-12-11T06:27:37.191Z,5.34
2018-12-11T06:30:07.475Z,5.45
2018-12-11T06:32:34.908Z,5.65
2018-12-11T06:35:02.398Z,5.32
2018-12-11T06:37:29.860Z,4.96
2018-12-11T06:39:57.337Z,4.56
2018-12-11T06:42:24.772Z,4.37
2018-12-11T06:44:52.250Z,4.45
2018-12-11T06:47:19.680Z,4.74
2018-12-11T06:49:47.216Z,4.92
2018-12-11T06:52:14.690Z,5.17
2018-12-11T06:54:42.154Z,5.34
2018-12-11T06:57:09.698Z,5.20
2018-12-11T06:59:37.138Z,5.30
2018-12-11T07:02:04.616Z,5.39
2018-12-11T07:04:32.090Z,5.47
2018-12-11T07:06:59.572Z,5.77
2018-12-11T07:09:27.088Z,5.67
2018-12-11T07:11:54.528Z,5.28
2018-12-11T07:14:21.974Z,4.80
2018-12-11T07:16:49.445Z,4.64
2018-12-11T07:19:16.925Z,4.51
2018-12-11T07:21:44.387Z,4.52
2018-12-11T07:24:11.862Z,4.50
2018-12-11T07:26:39.457Z,4.65
2018-12-11T07:29:06.932Z,4.80
2018-12-11T07:31:34.371Z,4.90
2018-12-11T07:34:01.820Z,5.03
2018-12-11T07:36:29.306Z,5.20
2018-12-11T07:38:56.746Z,5.32
2018-12-11T07:41:24.220Z,5.43
2018-12-11T07:43:51.689Z,5.57
2018-12-11T07:46:19.158Z,5.51
2018-12-11T07:48:46.650Z,5.36
2018-12-11T07:51:14.110Z,5.00
2018-12-11T07:53:41.601Z,4.88
2018-12-11T07:56:09.049Z,4.88
2018-12-11T07:58:36.556Z,5.06
2018-12-11T08:01:04.175Z,5.23
2018-12-11T08:03:31.658Z,5.42
2018-12-11T08:05:59.099Z,5.65
2018-12-11T08:08:26.590Z,5.63
2018-12-11T08:10:54.058Z,5.54
2018-12-11T08:13:21.524Z,5.57
2018-12-11T08:15:48.987Z,5.69
2018-12-11T08:18:16.459Z,5.94
2018-12-11T08:20:44.278Z,5.95
2018-12-11T08:23:11.745Z,5.50
2018-12-11T08:25:39.210Z,5.23
2018-12-11T08:28:06.704Z,4.93
2018-12-11T08:30:34.152Z,4.79
2018-12-11T08:33:01.638Z,4.93
2018-12-11T08:35:29.110Z,5.44
2018-12-11T08:37:56.580Z,6.17
2018-12-11T08:40:24.055Z,6.38
2018-12-11T08:42:51.499Z,6.24
2018-12-11T08:45:18.970Z,6.28
2018-12-11T08:47:46.430Z,6.26
2018-12-11T08:50:14.362Z,6.29
2018-12-11T08:52:41.829Z,6.33
2018-12-11T08:55:09.293Z,6.45
2018-12-11T08:57:37.198Z,6.06
2018-12-11T09:00:07.250Z,5.80
2018-12-11T09:02:34.779Z,5.56
2018-12-11T09:05:02.246Z,5.22
2018-12-11T09:07:29.734Z,5.20
2018-12-11T09:09:57.183Z,5.34
2018-12-11T09:12:24.665Z,5.43
2018-12-11T09:14:52.137Z,5.50
2018-12-11T09:17:19.597Z,5.58
2018-12-11T09:19:47.100Z,5.70
2018-12-11T09:22:14.533Z,5.84
2018-12-11T09:24:41.979Z,5.86
2018-12-11T09:27:09.536Z,6.10
2018-12-11T09:29:37.004Z,6.44
2018-12-11T09:32:04.445Z,6.48
2018-12-11T09:34:31.929Z,6.25
2018-12-11T09:36:59.404Z,6.28
2018-12-11T09:39:26.886Z,6.22
2018-12-11T09:41:54.415Z,6.21
2018-12-11T09:44:21.965Z,6.18
2018-12-11T09:46:49.489Z,6.25
2018-12-11T09:49:17.040Z,6.44
2018-12-11T09:51:44.524Z,6.34
2018-12-11T09:54:11.999Z,6.20
2018-12-11T09:56:39.454Z,6.19
2018-12-11T09:59:06.940Z,6.24
2018-12-11T10:01:34.413Z,6.32
2018-12-11T10:04:01.890Z,6.58
2018-12-11T10:06:29.333Z,6.79
2018-12-11T10:08:58.859Z,6.62
2018-12-11T10:11:26.408Z,6.45
2018-12-11T10:13:53.884Z,6.40
2018-12-11T10:16:21.385Z,6.34
2018-12-11T10:18:48.842Z,6.31
2018-12-11T10:21:16.299Z,6.37
2018-12-11T10:23:44.775Z,6.55
2018-12-11T10:26:12.206Z,6.96
2018-12-11T10:28:39.744Z,7.18
2018-12-11T10:31:07.227Z,7.25
2018-12-11T10:33:34.714Z,7.22
2018-12-11T10:36:02.189Z,7.27
2018-12-11T10:38:29.645Z,7.36
2018-12-11T10:40:57.143Z,7.58
2018-12-11T10:43:24.658Z,7.39
2018-12-11T10:45:52.138Z,7.17
2018-12-11T10:48:19.612Z,6.86
2018-12-11T10:50:47.088Z,6.96
2018-12-11T10:53:15.416Z,7.28
2018-12-11T10:55:42.880Z,7.50
2018-12-11T10:58:10.354Z,7.67
2018-12-11T11:00:43.365Z,7.80
2018-12-11T11:03:11.041Z,8.05
2018-12-11T11:05:38.520Z,8.17
2018-12-11T11:08:06.002Z,8.04
2018-12-11T11:10:33.588Z,7.99
2018-12-11T11:13:01.037Z,8.00
2018-12-11T11:15:28.527Z,8.20
2018-12-11T11:17:56.012Z,7.89
2018-12-11T11:20:23.460Z,7.46
2018-12-11T11:22:50.929Z,7.18
2018-12-11T11:25:18.383Z,6.94
2018-12-11T11:27:45.855Z,6.67
2018-12-11T11:30:13.329Z,6.51
2018-12-11T11:32:40.825Z,6.46
2018-12-11T11:35:08.413Z,6.71
2018-12-11T11:37:35.871Z,7.02
2018-12-11T11:40:04.281Z,7.66
2018-12-11T11:42:32.089Z,8.16
2018-12-11T11:44:59.865Z,8.44
2018-12-11T11:47:27.383Z,8.51
2018-12-11T11:49:54.834Z,8.52
2018-12-11T11:52:22.299Z,8.46
2018-12-11T11:54:49.827Z,8.24
2018-12-11T11:57:17.285Z,7.92
2018-12-11T11:59:44.861Z,7.68
2018-12-11T12:02:12.341Z,7.50
2018-12-11T12:04:39.802Z,7.50
2018-12-11T12:07:07.274Z,7.47
2018-12-11T12:09:34.750Z,7.43
2018-12-11T12:12:02.366Z,7.23
2018-12-11T12:14:29.821Z,7.19
2018-12-11T12:16:57.291Z,7.09
2018-12-11T12:19:24.779Z,7.08
2018-12-11T12:21:52.254Z,6.98
2018-12-11T12:24:19.714Z,7.19
2018-12-11T12:26:47.196Z,7.44
2018-12-11T12:29:14.892Z,7.53
2018-12-11T12:31:42.376Z,7.65
2018-12-11T12:34:09.830Z,7.79
2018-12-11T12:36:37.290Z,7.73
2018-12-11T12:39:07.180Z,7.83
2018-12-11T12:41:34.641Z,7.78
2018-12-11T12:44:02.120Z,7.90
2018-12-11T12:46:29.563Z,8.12
2018-12-11T12:48:57.078Z,8.54
2018-12-11T12:51:24.546Z,8.49
2018-12-11T12:53:51.984Z,8.40
2018-12-11T12:56:19.475Z,8.34
2018-12-11T12:58:46.957Z,8.04
2018-12-11T13:01:15.193Z,7.81
2018-12-11T13:03:42.937Z,7.87
2018-12-11T13:06:10.543Z,7.97
2018-12-11T13:08:38.024Z,8.04
2018-12-11T13:11:05.504Z,8.05
2018-12-11T13:13:32.940Z,8.12
2018-12-11T13:16:00.433Z,8.10
2018-12-11T13:18:27.895Z,7.96
2018-12-11T13:20:55.378Z,7.99
2018-12-11T13:23:22.834Z,7.97
2018-12-11T13:25:50.344Z,7.92
2018-12-11T13:28:17.799Z,8.03
2018-12-11T13:30:45.319Z,7.98
2018-12-11T13:33:12.794Z,7.91
2018-12-11T13:35:40.423Z,8.00
2018-12-11T13:38:07.884Z,7.92
2018-12-11T13:40:35.745Z,7.96
2018-12-11T13:43:03.444Z,8.06
2018-12-11T13:45:30.859Z,8.10
2018-12-11T13:47:58.424Z,8.04
2018-12-11T13:50:25.982Z,8.00
2018-12-11T13:52:53.459Z,8.12
2018-12-11T13:55:20.893Z,8.22
2018-12-11T13:57:48.396Z,8.28
2018-12-11T14:00:15.857Z,8.35
2018-12-11T14:02:43.364Z,8.40
2018-12-11T14:05:10.899Z,8.34
2018-12-11T14:07:38.383Z,8.45
2018-12-11T14:10:06.493Z,8.52
2018-12-11T14:12:33.985Z,8.37
2018-12-11T14:15:01.495Z,8.19
2018-12-11T14:17:28.980Z,8.18
2018-12-11T14:19:56.443Z,8.02
2018-12-11T14:22:23.919Z,7.99
2018-12-11T14:24:51.403Z,7.93
2018-12-11T14:27:18.925Z,7.97
2018-12-11T14:29:46.428Z,7.97
2018-12-11T14:32:13.869Z,7.77
2018-12-11T14:34:41.375Z,7.78
2018-12-11T14:37:08.807Z,7.81
2018-12-11T14:39:36.288Z,7.71
2018-12-11T14:42:03.884Z,7.50
2018-12-11T14:44:31.340Z,7.29
2018-12-11T14:46:58.814Z,7.32
2018-12-11T14:49:26.270Z,7.38
2018-12-11T14:51:53.770Z,7.33
2018-12-11T14:54:21.244Z,7.37
2018-12-11T14:56:48.753Z,7.56
2018-12-11T14:59:16.245Z,7.68
2018-12-11T15:01:43.772Z,7.77
2018-12-11T15:04:11.234Z,7.75
2018-12-11T15:06:38.688Z,7.58
2018-12-11T15:12:14.625Z,7.50
2018-12-11T15:14:42.118Z,7.56
2018-12-11T15:17:09.628Z,7.53
2018-12-11T15:19:37.092Z,7.47
2018-12-11T15:22:04.546Z,7.60
2018-12-11T15:24:32.059Z,7.71
2018-12-11T15:26:59.509Z,7.70
2018-12-11T15:29:26.977Z,7.78
2018-12-11T15:31:54.424Z,7.88
2018-12-11T15:34:21.908Z,7.98
2018-12-11T15:36:49.368Z,8.06
2018-12-11T15:39:16.833Z,8.14
2018-12-11T15:41:44.309Z,8.11
2018-12-11T15:44:11.783Z,8.12
2018-12-11T15:46:39.377Z,7.94
2018-12-11T15:49:06.843Z,7.49
2018-12-11T15:51:34.320Z,7.34
2018-12-11T15:54:02.243Z,7.25
2018-12-11T15:56:29.784Z,7.20
2018-12-11T15:58:57.269Z,7.25
2018-12-11T16:01:24.741Z,7.16
2018-12-11T16:03:52.219Z,7.02
2018-12-11T16:06:19.722Z,7.06
2018-12-11T16:08:47.193Z,7.06
2018-12-11T16:11:14.661Z,6.94
2018-12-11T16:13:42.163Z,6.98
2018-12-11T16:16:10.253Z,6.78
2018-12-11T16:18:37.744Z,6.63
2018-12-11T16:21:05.208Z,6.54
2018-12-11T16:23:32.688Z,6.70
2018-12-11T16:26:00.159Z,6.81
2018-12-11T16:28:28.958Z,6.80
2018-12-11T16:30:56.632Z,6.99
2018-12-11T16:33:24.083Z,7.09
2018-12-11T16:35:51.683Z,7.23
2018-12-11T16:38:19.149Z,7.38
2018-12-11T16:40:46.634Z,7.44
2018-12-11T16:43:14.922Z,7.45
2018-12-11T16:45:42.394Z,7.54
2018-12-11T16:48:09.892Z,7.57
2018-12-11T16:50:37.333Z,7.58
2018-12-11T16:53:04.852Z,7.52
2018-12-11T16:55:32.474Z,7.41
2018-12-11T16:57:59.966Z,7.38
2018-12-11T17:00:27.477Z,7.57
2018-12-11T17:02:55.784Z,7.65
2018-12-11T17:05:23.289Z,7.68
2018-12-11T17:07:50.796Z,7.67
2018-12-11T17:10:18.286Z,7.76
2018-12-11T17:12:46.471Z,7.75
2018-12-11T17:15:16.149Z,7.78
2018-12-11T17:17:43.705Z,7.75
2018-12-11T17:20:11.214Z,7.55
2018-12-11T17:22:39.599Z,7.21
2018-12-11T17:25:07.030Z,7.06
2018-12-11T17:27:34.539Z,6.95
2018-12-11T17:30:01.999Z,6.76
2018-12-11T17:32:29.683Z,6.68
2018-12-11T17:34:57.139Z,6.55
2018-12-11T17:37:24.601Z,6.65
2018-12-11T17:39:52.079Z,6.45
2018-12-11T17:42:19.516Z,6.26
2018-12-11T17:44:47.010Z,6.06
2018-12-11T17:47:14.513Z,6.03
2018-12-11T17:49:42.816Z,6.25
2018-12-11T17:52:10.277Z,6.33
2018-12-11T17:54:37.761Z,6.54
2018-12-11T17:57:05.246Z,6.67
2018-12-11T17:59:32.741Z,6.87
2018-12-11T18:02:00.924Z,6.99
2018-12-11T18:04:28.420Z,6.93
2018-12-11T18:06:55.884Z,6.95
2018-12-11T18:09:23.346Z,7.05
2018-12-11T18:11:50.834Z,7.22
2018-12-11T18:14:18.280Z,7.28
2018-12-11T18:16:46.310Z,7.37
2018-12-11T18:19:14.446Z,7.42
2018-12-11T18:21:42.304Z,7.43
2018-12-11T18:24:09.719Z,7.46
2018-12-11T18:26:37.170Z,7.37
2018-12-11T18:29:04.684Z,7.30
2018-12-11T18:31:32.940Z,7.33
2018-12-11T18:34:01.076Z,7.39
2018-12-11T18:36:28.566Z,7.53
2018-12-11T18:38:56.059Z,7.62
2018-12-11T18:41:23.529Z,7.54
2018-12-11T18:43:51.026Z,7.57
2018-12-11T18:46:18.500Z,7.30
2018-12-11T18:48:46.627Z,7.00
2018-12-11T18:51:14.269Z,6.72
2018-12-11T18:53:41.724Z,6.54
2018-12-11T18:56:09.233Z,6.40
2018-12-11T18:58:36.812Z,6.43
2018-12-11T19:01:04.300Z,6.27
2018-12-11T19:03:31.870Z,6.34
2018-12-11T19:05:59.346Z,6.29
2018-12-11T19:08:26.861Z,6.16
2018-12-11T19:10:54.337Z,6.17
2018-12-11T19:13:21.818Z,6.40
2018-12-11T19:15:49.331Z,6.46
2018-12-11T19:18:16.888Z,6.51
2018-12-11T19:20:44.790Z,6.47
2018-12-11T19:23:16.242Z,6.65
2018-12-11T19:25:43.714Z,6.83
2018-12-11T19:28:11.212Z,7.05
2018-12-11T19:30:38.723Z,7.11
2018-12-11T19:33:06.233Z,7.26
2018-12-11T19:35:33.700Z,7.44
2018-12-11T19:38:01.254Z,7.52
2018-12-11T19:40:28.705Z,7.45
2018-12-11T19:42:56.208Z,7.34
2018-12-11T19:45:23.683Z,7.29
2018-12-11T19:47:51.155Z,7.38
2018-12-11T19:50:18.653Z,7.48
2018-12-11T19:52:46.803Z,7.54
2018-12-11T19:55:14.268Z,7.64
2018-12-11T19:57:41.741Z,7.71
2018-12-11T20:00:09.569Z,7.72
2018-12-11T20:02:37.082Z,7.73
2018-12-11T20:05:05.721Z,7.67
2018-12-11T20:07:33.208Z,7.56
2018-12-11T20:10:06.432Z,7.57
2018-12-11T20:12:33.922Z,7.24
2018-12-11T20:15:04.678Z,6.74
2018-12-11T20:17:30.873Z,6.26
2018-12-11T20:19:58.363Z,6.18
2018-12-11T20:22:25.888Z,6.15
2018-12-11T20:24:53.348Z,6.14
2018-12-11T20:27:20.795Z,6.16
2018-12-11T20:29:48.292Z,5.93
2018-12-11T20:32:15.754Z,5.73
2018-12-11T20:34:43.252Z,5.73
2018-12-11T20:37:10.796Z,5.93
2018-12-11T20:39:38.244Z,5.99
2018-12-11T20:42:05.839Z,6.04
2018-12-11T20:44:33.323Z,6.20
2018-12-11T20:47:00.922Z,6.42
2018-12-11T20:49:28.453Z,6.59
2018-12-11T20:51:55.906Z,6.56
2018-12-11T20:54:23.382Z,6.52
2018-12-11T20:56:50.883Z,6.42
2018-12-11T20:59:18.389Z,6.48
2018-12-11T21:01:45.840Z,6.47
2018-12-11T21:04:13.344Z,6.53
2018-12-11T21:06:40.851Z,6.67
2018-12-11T21:09:10.317Z,6.73
2018-12-11T21:11:37.807Z,6.69
2018-12-11T21:14:05.292Z,6.63
2018-12-11T21:16:32.832Z,6.64
2018-12-11T21:19:00.772Z,6.58
2018-12-11T21:21:28.663Z,6.65
2018-12-11T21:23:56.942Z,6.62
2018-12-11T21:26:25.138Z,6.65
2018-12-11T21:28:52.652Z,6.57
2018-12-11T21:31:20.141Z,6.57
2018-12-11T21:33:47.637Z,6.59
2018-12-11T21:36:15.117Z,6.15
2018-12-11T21:38:42.601Z,5.91
2018-12-11T21:41:10.066Z,5.55
2018-12-11T21:43:37.567Z,5.25
2018-12-11T21:46:05.214Z,4.93
2018-12-11T21:48:32.667Z,4.67
2018-12-11T21:51:00.198Z,4.72
2018-12-11T21:53:27.665Z,4.62
2018-12-11T21:55:55.147Z,4.55
2018-12-11T21:58:22.651Z,4.65
2018-12-11T22:00:50.261Z,4.93
2018-12-11T22:03:18.053Z,5.13
2018-12-11T22:05:45.528Z,5.21
2018-12-11T22:08:13.010Z,5.40
2018-12-11T22:10:40.492Z,5.55
2018-12-11T22:13:07.983Z,5.60
2018-12-11T22:15:35.461Z,5.56
2018-12-11T22:18:02.973Z,5.67
2018-12-11T22:20:30.462Z,5.55
2018-12-11T22:22:57.927Z,5.37
2018-12-11T22:25:25.382Z,5.17
2018-12-11T22:27:52.861Z,5.11
2018-12-11T22:30:20.316Z,5.00
2018-12-11T22:32:47.783Z,4.86
2018-12-11T22:35:15.243Z,4.99
2018-12-11T22:37:42.717Z,4.59
2018-12-11T22:40:10.211Z,4.07
2018-12-11T22:42:37.650Z,3.64
2018-12-11T22:45:05.346Z,3.45
2018-12-11T22:47:32.790Z,3.49
2018-12-11T22:50:00.265Z,3.36
2018-12-11T22:52:27.734Z,3.25
2018-12-11T22:54:55.200Z,3.45
2018-12-11T22:57:22.652Z,3.41
2018-12-11T22:59:50.136Z,3.36
2018-12-11T23:02:17.613Z,3.48
2018-12-11T23:04:45.106Z,3.74
2018-12-11T23:07:12.590Z,3.75
2018-12-11T23:09:42.055Z,3.85
2018-12-11T23:12:09.543Z,4.04
2018-12-11T23:14:37.017Z,4.01
2018-12-11T23:17:04.515Z,3.75
2018-12-11T23:19:32.015Z,3.90
2018-12-11T23:21:59.457Z,3.83
2018-12-11T23:24:26.977Z,3.65
2018-12-11T23:26:54.436Z,3.07
2018-12-11T23:29:21.897Z,2.58
2018-12-11T23:31:49.641Z,2.15
2018-12-11T23:34:17.213Z,1.81
2018-12-11T23:36:44.721Z,1.66
2018-12-11T23:39:12.209Z,1.80
2018-12-11T23:41:39.662Z,1.97
2018-12-11T23:44:07.101Z,2.05
2018-12-11T23:46:34.591Z,2.30
2018-12-11T23:49:02.020Z,2.69
2018-12-11T23:51:29.525Z,2.81
2018-12-11T23:53:56.982Z,2.79
2018-12-11T23:56:24.441Z,3.03
2018-12-11T23:58:51.913Z,2.77
